sensor_id;sensor_type;location;lat;lon;timestamp;P1;durP1;ratioP1;P2;durP2;ratioP2
74926;SDS011;63488;48.092;-1.640;2022-11-20T00:00:46;8.30;;;4.30;;
74926;SDS011;63488;48.092;-1.640;2022-11-20T00:03:12;7.75;;;4.03;;
74926;SDS011;63488;48.092;-1.640;2022-11-20T00:05:37;8.35;;;3.90;;
74926;SDS011;63488;48.092;-1.640;2022-11-20T00:08:02;10.52;;;4.07;;
74926;SDS011;63488;48.092;-1.640;2022-11-20T00:10:28;6.45;;;3.60;;
74926;SDS011;63488;48.092;-1.640;2022-11-20T00:12:53;6.53;;;3.70;;
74926;SDS011;63488;48.092;-1.640;2022-11-20T00:15:18;7.28;;;3.45;;
74926;SDS011;63488;48.092;-1.640;2022-11-20T00:17:44;8.23;;;3.85;;
74926;SDS011;63488;48.092;-1.640;2022-11-20T00:20:09;6.63;;;3.65;;
74926;SDS011;63488;48.092;-1.640;2022-11-20T00:22:35;8.10;;;3.63;;
74926;SDS011;63488;48.092;-1.640;2022-11-20T00:25:00;7.40;;;3.90;;
74926;SDS011;63488;48.092;-1.640;2022-11-20T00:27:25;6.43;;;3.08;;
74926;SDS011;63488;48.092;-1.640;2022-11-20T00:29:51;5.57;;;3.15;;
74926;SDS011;63488;48.092;-1.640;2022-11-20T00:32:16;7.65;;;3.35;;
74926;SDS011;63488;48.092;-1.640;2022-11-20T00:34:41;6.13;;;3.45;;
74926;SDS011;63488;48.092;-1.640;2022-11-20T00:37:07;8.65;;;3.40;;
74926;SDS011;63488;48.092;-1.640;2022-11-20T00:39:32;7.85;;;3.25;;
74926;SDS011;63488;48.092;-1.640;2022-11-20T00:41:57;7.60;;;2.80;;
74926;SDS011;63488;48.092;-1.640;2022-11-20T00:44:23;7.40;;;3.30;;
74926;SDS011;63488;48.092;-1.640;2022-11-20T00:46:48;5.85;;;3.38;;
74926;SDS011;63488;48.092;-1.640;2022-11-20T00:49:13;8.13;;;3.63;;
74926;SDS011;63488;48.092;-1.640;2022-11-20T00:51:39;5.55;;;3.28;;
74926;SDS011;63488;48.092;-1.640;2022-11-20T00:54:04;6.65;;;3.20;;
74926;SDS011;63488;48.092;-1.640;2022-11-20T00:56:29;7.50;;;3.30;;
74926;SDS011;63488;48.092;-1.640;2022-11-20T00:58:55;8.73;;;3.30;;
74926;SDS011;63488;48.092;-1.640;2022-11-20T01:01:22;6.45;;;3.30;;
74926;SDS011;63488;48.092;-1.640;2022-11-20T01:03:49;4.88;;;2.85;;
74926;SDS011;63488;48.092;-1.640;2022-11-20T01:06:16;7.40;;;3.63;;
74926;SDS011;63488;48.092;-1.640;2022-11-20T01:08:42;5.22;;;3.05;;
74926;SDS011;63488;48.092;-1.640;2022-11-20T01:11:08;6.85;;;2.80;;
74926;SDS011;63488;48.092;-1.640;2022-11-20T01:13:34;6.43;;;2.90;;
74926;SDS011;63488;48.092;-1.640;2022-11-20T01:16:07;5.13;;;2.60;;
74926;SDS011;63488;48.092;-1.640;2022-11-20T01:18:33;7.45;;;3.03;;
74926;SDS011;63488;48.092;-1.640;2022-11-20T01:21:02;5.47;;;2.60;;
74926;SDS011;63488;48.092;-1.640;2022-11-20T01:23:38;4.80;;;2.67;;
74926;SDS011;63488;48.092;-1.640;2022-11-20T01:26:04;6.20;;;2.70;;
74926;SDS011;63488;48.092;-1.640;2022-11-20T01:28:30;4.72;;;2.58;;
74926;SDS011;63488;48.092;-1.640;2022-11-20T01:30:56;6.18;;;2.60;;
74926;SDS011;63488;48.092;-1.640;2022-11-20T01:33:21;4.57;;;2.60;;
74926;SDS011;63488;48.092;-1.640;2022-11-20T01:35:47;4.97;;;2.55;;
74926;SDS011;63488;48.092;-1.640;2022-11-20T01:38:12;4.90;;;2.20;;
74926;SDS011;63488;48.092;-1.640;2022-11-20T01:40:37;4.75;;;2.00;;
74926;SDS011;63488;48.092;-1.640;2022-11-20T01:43:12;8.07;;;2.83;;
74926;SDS011;63488;48.092;-1.640;2022-11-20T01:48:13;3.85;;;2.05;;
74926;SDS011;63488;48.092;-1.640;2022-11-20T01:50:38;4.00;;;2.30;;
74926;SDS011;63488;48.092;-1.640;2022-11-20T01:53:06;5.03;;;2.40;;
74926;SDS011;63488;48.092;-1.640;2022-11-20T01:55:37;4.93;;;2.20;;
74926;SDS011;63488;48.092;-1.640;2022-11-20T01:58:04;6.03;;;2.10;;
74926;SDS011;63488;48.092;-1.640;2022-11-20T02:00:30;5.40;;;1.98;;
74926;SDS011;63488;48.092;-1.640;2022-11-20T02:02:57;4.82;;;1.88;;
74926;SDS011;63488;48.092;-1.640;2022-11-20T02:07:47;10.05;;;2.60;;
74926;SDS011;63488;48.092;-1.640;2022-11-20T02:10:13;3.75;;;1.80;;
74926;SDS011;63488;48.092;-1.640;2022-11-20T02:12:39;3.90;;;1.77;;
74926;SDS011;63488;48.092;-1.640;2022-11-20T02:15:23;3.88;;;1.92;;
74926;SDS011;63488;48.092;-1.640;2022-11-20T02:17:48;4.78;;;1.83;;
74926;SDS011;63488;48.092;-1.640;2022-11-20T02:20:13;5.32;;;2.20;;
74926;SDS011;63488;48.092;-1.640;2022-11-20T02:22:43;5.18;;;1.92;;
74926;SDS011;63488;48.092;-1.640;2022-11-20T02:25:10;5.13;;;2.03;;
74926;SDS011;63488;48.092;-1.640;2022-11-20T02:27:35;4.60;;;1.70;;
74926;SDS011;63488;48.092;-1.640;2022-11-20T02:30:02;4.82;;;1.90;;
74926;SDS011;63488;48.092;-1.640;2022-11-20T02:34:54;3.35;;;1.50;;
74926;SDS011;63488;48.092;-1.640;2022-11-20T02:37:20;4.57;;;1.90;;
74926;SDS011;63488;48.092;-1.640;2022-11-20T02:39:49;5.95;;;1.67;;
74926;SDS011;63488;48.092;-1.640;2022-11-20T02:42:14;5.22;;;2.05;;
74926;SDS011;63488;48.092;-1.640;2022-11-20T02:44:40;2.53;;;1.70;;
74926;SDS011;63488;48.092;-1.640;2022-11-20T02:47:05;4.88;;;1.60;;
74926;SDS011;63488;48.092;-1.640;2022-11-20T02:49:31;4.45;;;2.00;;
74926;SDS011;63488;48.092;-1.640;2022-11-20T02:51:56;4.53;;;1.77;;
74926;SDS011;63488;48.092;-1.640;2022-11-20T02:54:22;5.68;;;1.80;;
74926;SDS011;63488;48.092;-1.640;2022-11-20T02:56:47;4.53;;;1.90;;
74926;SDS011;63488;48.092;-1.640;2022-11-20T02:59:12;5.22;;;1.77;;
74926;SDS011;63488;48.092;-1.640;2022-11-20T03:01:38;3.45;;;1.58;;
74926;SDS011;63488;48.092;-1.640;2022-11-20T03:04:03;5.70;;;1.77;;
74926;SDS011;63488;48.092;-1.640;2022-11-20T03:06:29;3.42;;;1.80;;
74926;SDS011;63488;48.092;-1.640;2022-11-20T03:08:54;4.03;;;1.50;;
74926;SDS011;63488;48.092;-1.640;2022-11-20T03:11:19;6.40;;;1.98;;
74926;SDS011;63488;48.092;-1.640;2022-11-20T03:13:45;2.88;;;1.33;;
74926;SDS011;63488;48.092;-1.640;2022-11-20T03:16:11;5.32;;;2.00;;
74926;SDS011;63488;48.092;-1.640;2022-11-20T03:18:37;3.85;;;1.73;;
74926;SDS011;63488;48.092;-1.640;2022-11-20T03:21:03;4.65;;;1.60;;
74926;SDS011;63488;48.092;-1.640;2022-11-20T03:23:29;3.08;;;1.70;;
74926;SDS011;63488;48.092;-1.640;2022-11-20T03:25:54;3.63;;;1.58;;
74926;SDS011;63488;48.092;-1.640;2022-11-20T03:28:20;4.35;;;1.52;;
74926;SDS011;63488;48.092;-1.640;2022-11-20T03:30:45;5.57;;;1.50;;
74926;SDS011;63488;48.092;-1.640;2022-11-20T03:33:10;2.72;;;1.48;;
74926;SDS011;63488;48.092;-1.640;2022-11-20T03:35:36;5.00;;;1.58;;
74926;SDS011;63488;48.092;-1.640;2022-11-20T03:38:01;4.07;;;1.73;;
74926;SDS011;63488;48.092;-1.640;2022-11-20T03:40:26;2.55;;;1.60;;
74926;SDS011;63488;48.092;-1.640;2022-11-20T03:42:52;3.08;;;1.55;;
74926;SDS011;63488;48.092;-1.640;2022-11-20T03:45:17;4.60;;;1.40;;
74926;SDS011;63488;48.092;-1.640;2022-11-20T03:47:43;3.90;;;1.42;;
74926;SDS011;63488;48.092;-1.640;2022-11-20T03:50:09;5.13;;;2.03;;
74926;SDS011;63488;48.092;-1.640;2022-11-20T03:52:34;2.92;;;1.60;;
74926;SDS011;63488;48.092;-1.640;2022-11-20T03:55:00;5.85;;;2.03;;
74926;SDS011;63488;48.092;-1.640;2022-11-20T03:57:25;5.30;;;1.80;;
74926;SDS011;63488;48.092;-1.640;2022-11-20T03:59:50;2.83;;;1.77;;
74926;SDS011;63488;48.092;-1.640;2022-11-20T04:02:16;4.88;;;1.73;;
74926;SDS011;63488;48.092;-1.640;2022-11-20T04:04:41;4.22;;;1.70;;
74926;SDS011;63488;48.092;-1.640;2022-11-20T04:07:06;4.43;;;1.73;;
74926;SDS011;63488;48.092;-1.640;2022-11-20T04:09:32;2.88;;;1.52;;
74926;SDS011;63488;48.092;-1.640;2022-11-20T04:11:57;3.20;;;1.70;;
74926;SDS011;63488;48.092;-1.640;2022-11-20T04:14:22;2.60;;;1.38;;
74926;SDS011;63488;48.092;-1.640;2022-11-20T04:16:48;3.35;;;1.73;;
74926;SDS011;63488;48.092;-1.640;2022-11-20T04:19:14;3.95;;;1.63;;
74926;SDS011;63488;48.092;-1.640;2022-11-20T04:21:40;5.70;;;1.80;;
74926;SDS011;63488;48.092;-1.640;2022-11-20T04:24:05;5.15;;;1.70;;
74926;SDS011;63488;48.092;-1.640;2022-11-20T04:26:31;3.28;;;1.60;;
74926;SDS011;63488;48.092;-1.640;2022-11-20T04:28:56;2.38;;;1.50;;
74926;SDS011;63488;48.092;-1.640;2022-11-20T04:31:23;4.03;;;1.70;;
74926;SDS011;63488;48.092;-1.640;2022-11-20T04:33:48;3.05;;;1.70;;
74926;SDS011;63488;48.092;-1.640;2022-11-20T04:36:18;3.65;;;2.20;;
74926;SDS011;63488;48.092;-1.640;2022-11-20T04:38:44;6.13;;;2.45;;
74926;SDS011;63488;48.092;-1.640;2022-11-20T04:41:17;2.63;;;1.90;;
74926;SDS011;63488;48.092;-1.640;2022-11-20T04:43:46;4.68;;;2.10;;
74926;SDS011;63488;48.092;-1.640;2022-11-20T04:46:13;2.78;;;2.00;;
74926;SDS011;63488;48.092;-1.640;2022-11-20T04:48:38;4.03;;;2.05;;
74926;SDS011;63488;48.092;-1.640;2022-11-20T04:51:04;5.18;;;2.20;;
74926;SDS011;63488;48.092;-1.640;2022-11-20T04:53:29;5.03;;;2.03;;
74926;SDS011;63488;48.092;-1.640;2022-11-20T04:56:01;4.63;;;2.20;;
74926;SDS011;63488;48.092;-1.640;2022-11-20T04:58:27;4.60;;;2.20;;
74926;SDS011;63488;48.092;-1.640;2022-11-20T05:00:52;5.45;;;2.45;;
74926;SDS011;63488;48.092;-1.640;2022-11-20T05:03:18;4.40;;;2.40;;
74926;SDS011;63488;48.092;-1.640;2022-11-20T05:05:43;5.00;;;2.20;;
74926;SDS011;63488;48.092;-1.640;2022-11-20T05:08:08;5.45;;;2.40;;
74926;SDS011;63488;48.092;-1.640;2022-11-20T05:10:33;6.45;;;2.33;;
74926;SDS011;63488;48.092;-1.640;2022-11-20T05:12:59;3.38;;;2.05;;
74926;SDS011;63488;48.092;-1.640;2022-11-20T05:15:24;6.13;;;2.53;;
74926;SDS011;63488;48.092;-1.640;2022-11-20T05:17:50;5.93;;;2.30;;
74926;SDS011;63488;48.092;-1.640;2022-11-20T05:20:16;4.88;;;2.00;;
74926;SDS011;63488;48.092;-1.640;2022-11-20T05:22:41;4.40;;;2.28;;
74926;SDS011;63488;48.092;-1.640;2022-11-20T05:25:07;3.33;;;1.92;;
74926;SDS011;63488;48.092;-1.640;2022-11-20T05:27:32;7.47;;;2.08;;
74926;SDS011;63488;48.092;-1.640;2022-11-20T05:29:58;5.00;;;1.90;;
74926;SDS011;63488;48.092;-1.640;2022-11-20T05:32:23;4.18;;;1.83;;
74926;SDS011;63488;48.092;-1.640;2022-11-20T05:34:50;4.32;;;2.15;;
74926;SDS011;63488;48.092;-1.640;2022-11-20T05:37:16;4.63;;;1.55;;
74926;SDS011;63488;48.092;-1.640;2022-11-20T05:39:41;3.15;;;1.60;;
74926;SDS011;63488;48.092;-1.640;2022-11-20T05:42:06;2.78;;;1.63;;
74926;SDS011;63488;48.092;-1.640;2022-11-20T05:44:50;2.08;;;1.60;;
74926;SDS011;63488;48.092;-1.640;2022-11-20T05:47:15;4.10;;;1.60;;
74926;SDS011;63488;48.092;-1.640;2022-11-20T05:49:41;2.55;;;1.25;;
74926;SDS011;63488;48.092;-1.640;2022-11-20T05:52:06;3.92;;;1.30;;
74926;SDS011;63488;48.092;-1.640;2022-11-20T05:54:31;2.58;;;1.50;;
74926;SDS011;63488;48.092;-1.640;2022-11-20T05:56:57;2.28;;;1.35;;
74926;SDS011;63488;48.092;-1.640;2022-11-20T05:59:22;3.13;;;1.33;;
74926;SDS011;63488;48.092;-1.640;2022-11-20T06:01:47;2.53;;;1.20;;
74926;SDS011;63488;48.092;-1.640;2022-11-20T06:04:13;1.67;;;1.15;;
74926;SDS011;63488;48.092;-1.640;2022-11-20T06:06:38;3.00;;;1.10;;
74926;SDS011;63488;48.092;-1.640;2022-11-20T06:09:04;2.15;;;1.02;;
74926;SDS011;63488;48.092;-1.640;2022-11-20T06:11:29;2.08;;;1.50;;
74926;SDS011;63488;48.092;-1.640;2022-11-20T06:13:54;2.08;;;1.50;;
74926;SDS011;63488;48.092;-1.640;2022-11-20T06:16:20;1.85;;;1.27;;
74926;SDS011;63488;48.092;-1.640;2022-11-20T06:18:46;1.65;;;1.10;;
74926;SDS011;63488;48.092;-1.640;2022-11-20T06:21:13;2.72;;;0.88;;
74926;SDS011;63488;48.092;-1.640;2022-11-20T06:23:38;2.13;;;0.75;;
74926;SDS011;63488;48.092;-1.640;2022-11-20T06:26:05;1.33;;;0.70;;
74926;SDS011;63488;48.092;-1.640;2022-11-20T06:28:31;1.67;;;0.80;;
74926;SDS011;63488;48.092;-1.640;2022-11-20T06:30:57;0.68;;;0.47;;
74926;SDS011;63488;48.092;-1.640;2022-11-20T06:33:22;0.95;;;0.60;;
74926;SDS011;63488;48.092;-1.640;2022-11-20T06:35:48;0.60;;;0.50;;
74926;SDS011;63488;48.092;-1.640;2022-11-20T06:38:13;0.73;;;0.50;;
74926;SDS011;63488;48.092;-1.640;2022-11-20T06:40:41;0.65;;;0.52;;
74926;SDS011;63488;48.092;-1.640;2022-11-20T06:43:07;0.95;;;0.50;;
74926;SDS011;63488;48.092;-1.640;2022-11-20T06:45:33;1.70;;;0.65;;
74926;SDS011;63488;48.092;-1.640;2022-11-20T06:47:58;1.85;;;0.50;;
74926;SDS011;63488;48.092;-1.640;2022-11-20T06:50:23;0.70;;;0.50;;
74926;SDS011;63488;48.092;-1.640;2022-11-20T06:52:49;1.15;;;0.70;;
74926;SDS011;63488;48.092;-1.640;2022-11-20T06:55:14;0.60;;;0.60;;
74926;SDS011;63488;48.092;-1.640;2022-11-20T06:57:39;1.08;;;0.80;;
74926;SDS011;63488;48.092;-1.640;2022-11-20T07:00:05;1.58;;;0.68;;
74926;SDS011;63488;48.092;-1.640;2022-11-20T07:02:31;0.50;;;0.45;;
74926;SDS011;63488;48.092;-1.640;2022-11-20T07:04:56;2.13;;;0.50;;
74926;SDS011;63488;48.092;-1.640;2022-11-20T07:07:22;0.98;;;0.47;;
74926;SDS011;63488;48.092;-1.640;2022-11-20T07:09:47;1.20;;;0.60;;
74926;SDS011;63488;48.092;-1.640;2022-11-20T07:12:12;1.75;;;0.90;;
74926;SDS011;63488;48.092;-1.640;2022-11-20T07:14:38;1.13;;;0.90;;
74926;SDS011;63488;48.092;-1.640;2022-11-20T07:17:03;1.55;;;0.80;;
74926;SDS011;63488;48.092;-1.640;2022-11-20T07:19:28;1.90;;;0.60;;
74926;SDS011;63488;48.092;-1.640;2022-11-20T07:21:54;0.82;;;0.40;;
74926;SDS011;63488;48.092;-1.640;2022-11-20T07:24:19;0.60;;;0.60;;
74926;SDS011;63488;48.092;-1.640;2022-11-20T07:26:47;0.68;;;0.50;;
74926;SDS011;63488;48.092;-1.640;2022-11-20T07:29:14;1.25;;;0.80;;
74926;SDS011;63488;48.092;-1.640;2022-11-20T07:31:40;1.40;;;0.70;;
74926;SDS011;63488;48.092;-1.640;2022-11-20T07:34:05;1.05;;;0.70;;
74926;SDS011;63488;48.092;-1.640;2022-11-20T07:36:30;1.98;;;0.77;;
74926;SDS011;63488;48.092;-1.640;2022-11-20T07:38:56;1.15;;;0.90;;
74926;SDS011;63488;48.092;-1.640;2022-11-20T07:41:21;1.77;;;1.52;;
74926;SDS011;63488;48.092;-1.640;2022-11-20T07:43:46;3.83;;;2.08;;
74926;SDS011;63488;48.092;-1.640;2022-11-20T07:46:12;2.13;;;1.73;;
74926;SDS011;63488;48.092;-1.640;2022-11-20T07:48:37;2.47;;;1.90;;
74926;SDS011;63488;48.092;-1.640;2022-11-20T07:51:02;3.15;;;2.05;;
74926;SDS011;63488;48.092;-1.640;2022-11-20T07:53:28;2.45;;;1.80;;
74926;SDS011;63488;48.092;-1.640;2022-11-20T07:55:53;1.45;;;1.35;;
74926;SDS011;63488;48.092;-1.640;2022-11-20T07:58:19;1.60;;;1.50;;
74926;SDS011;63488;48.092;-1.640;2022-11-20T08:00:45;2.00;;;1.20;;
74926;SDS011;63488;48.092;-1.640;2022-11-20T08:03:11;4.40;;;1.50;;
74926;SDS011;63488;48.092;-1.640;2022-11-20T08:05:37;2.22;;;1.50;;
74926;SDS011;63488;48.092;-1.640;2022-11-20T08:08:02;1.48;;;1.15;;
74926;SDS011;63488;48.092;-1.640;2022-11-20T08:10:27;2.75;;;1.40;;
74926;SDS011;63488;48.092;-1.640;2022-11-20T08:12:53;1.45;;;1.20;;
74926;SDS011;63488;48.092;-1.640;2022-11-20T08:15:37;1.42;;;1.33;;
74926;SDS011;63488;48.092;-1.640;2022-11-20T08:18:04;1.48;;;1.30;;
74926;SDS011;63488;48.092;-1.640;2022-11-20T08:20:30;5.65;;;1.60;;
74926;SDS011;63488;48.092;-1.640;2022-11-20T08:22:59;2.25;;;1.50;;
74926;SDS011;63488;48.092;-1.640;2022-11-20T08:25:25;2.92;;;1.27;;
74926;SDS011;63488;48.092;-1.640;2022-11-20T08:27:50;2.40;;;1.33;;
74926;SDS011;63488;48.092;-1.640;2022-11-20T08:30:16;2.63;;;1.30;;
74926;SDS011;63488;48.092;-1.640;2022-11-20T08:32:41;3.05;;;1.25;;
74926;SDS011;63488;48.092;-1.640;2022-11-20T08:35:06;4.05;;;1.90;;
74926;SDS011;63488;48.092;-1.640;2022-11-20T08:37:32;3.70;;;1.50;;
74926;SDS011;63488;48.092;-1.640;2022-11-20T08:39:57;4.35;;;1.88;;
74926;SDS011;63488;48.092;-1.640;2022-11-20T08:42:23;3.20;;;1.48;;
74926;SDS011;63488;48.092;-1.640;2022-11-20T08:44:48;5.05;;;1.40;;
74926;SDS011;63488;48.092;-1.640;2022-11-20T08:47:13;4.80;;;1.30;;
74926;SDS011;63488;48.092;-1.640;2022-11-20T08:49:39;6.60;;;1.30;;
74926;SDS011;63488;48.092;-1.640;2022-11-20T08:52:04;5.75;;;1.60;;
74926;SDS011;63488;48.092;-1.640;2022-11-20T08:54:30;6.95;;;1.90;;
74926;SDS011;63488;48.092;-1.640;2022-11-20T08:56:55;5.18;;;1.50;;
74926;SDS011;63488;48.092;-1.640;2022-11-20T08:59:21;6.80;;;1.63;;
74926;SDS011;63488;48.092;-1.640;2022-11-20T09:01:46;8.63;;;1.85;;
74926;SDS011;63488;48.092;-1.640;2022-11-20T09:04:12;9.65;;;2.15;;
74926;SDS011;63488;48.092;-1.640;2022-11-20T09:06:39;11.40;;;2.08;;
74926;SDS011;63488;48.092;-1.640;2022-11-20T09:09:04;9.10;;;2.40;;
74926;SDS011;63488;48.092;-1.640;2022-11-20T09:11:30;13.10;;;3.67;;
74926;SDS011;63488;48.092;-1.640;2022-11-20T09:13:56;15.55;;;3.08;;
74926;SDS011;63488;48.092;-1.640;2022-11-20T09:16:21;11.18;;;3.25;;
74926;SDS011;63488;48.092;-1.640;2022-11-20T09:18:49;14.10;;;3.17;;
74926;SDS011;63488;48.092;-1.640;2022-11-20T09:21:14;12.35;;;2.47;;
74926;SDS011;63488;48.092;-1.640;2022-11-20T09:23:40;12.60;;;2.67;;
74926;SDS011;63488;48.092;-1.640;2022-11-20T09:26:06;15.57;;;3.05;;
74926;SDS011;63488;48.092;-1.640;2022-11-20T09:28:32;13.65;;;3.20;;
74926;SDS011;63488;48.092;-1.640;2022-11-20T09:30:57;17.73;;;3.20;;
74926;SDS011;63488;48.092;-1.640;2022-11-20T09:33:23;18.08;;;3.25;;
74926;SDS011;63488;48.092;-1.640;2022-11-20T09:35:48;16.85;;;3.08;;
74926;SDS011;63488;48.092;-1.640;2022-11-20T09:38:13;17.63;;;3.10;;
74926;SDS011;63488;48.092;-1.640;2022-11-20T09:40:43;19.80;;;3.50;;
74926;SDS011;63488;48.092;-1.640;2022-11-20T09:45:48;18.92;;;3.70;;
74926;SDS011;63488;48.092;-1.640;2022-11-20T09:50:57;23.27;;;3.80;;
74926;SDS011;63488;48.092;-1.640;2022-11-20T09:53:30;23.23;;;4.00;;
74926;SDS011;63488;48.092;-1.640;2022-11-20T09:55:59;18.70;;;3.83;;
74926;SDS011;63488;48.092;-1.640;2022-11-20T09:58:34;22.05;;;4.05;;
74926;SDS011;63488;48.092;-1.640;2022-11-20T10:01:15;17.95;;;3.67;;
74926;SDS011;63488;48.092;-1.640;2022-11-20T10:03:44;20.70;;;3.83;;
74926;SDS011;63488;48.092;-1.640;2022-11-20T10:06:12;21.98;;;4.75;;
74926;SDS011;63488;48.092;-1.640;2022-11-20T10:08:43;23.80;;;4.03;;
74926;SDS011;63488;48.092;-1.640;2022-11-20T10:27:06;22.65;;;5.18;;
74926;SDS011;63488;48.092;-1.640;2022-11-20T10:29:34;19.90;;;5.18;;
74926;SDS011;63488;48.092;-1.640;2022-11-20T10:32:07;20.73;;;4.18;;
74926;SDS011;63488;48.092;-1.640;2022-11-20T10:34:43;20.75;;;4.25;;
74926;SDS011;63488;48.092;-1.640;2022-11-20T10:37:16;24.30;;;4.10;;
74926;SDS011;63488;48.092;-1.640;2022-11-20T10:42:41;25.10;;;3.70;;
74926;SDS011;63488;48.092;-1.640;2022-11-20T10:47:55;20.75;;;4.22;;
74926;SDS011;63488;48.092;-1.640;2022-11-20T10:50:21;19.52;;;3.90;;
74926;SDS011;63488;48.092;-1.640;2022-11-20T10:55:27;16.48;;;3.90;;
74926;SDS011;63488;48.092;-1.640;2022-11-20T10:58:01;23.63;;;3.90;;
74926;SDS011;63488;48.092;-1.640;2022-11-20T11:00:31;21.35;;;4.63;;
74926;SDS011;63488;48.092;-1.640;2022-11-20T11:02:57;19.25;;;3.88;;
74926;SDS011;63488;48.092;-1.640;2022-11-20T11:05:36;29.25;;;4.40;;
74926;SDS011;63488;48.092;-1.640;2022-11-20T11:08:01;22.17;;;4.07;;
74926;SDS011;63488;48.092;-1.640;2022-11-20T11:10:31;20.85;;;3.88;;
74926;SDS011;63488;48.092;-1.640;2022-11-20T11:12:57;22.90;;;4.07;;
74926;SDS011;63488;48.092;-1.640;2022-11-20T11:17:51;20.17;;;4.03;;
74926;SDS011;63488;48.092;-1.640;2022-11-20T11:20:18;21.17;;;3.40;;
74926;SDS011;63488;48.092;-1.640;2022-11-20T11:22:45;23.67;;;3.67;;
74926;SDS011;63488;48.092;-1.640;2022-11-20T11:25:27;21.92;;;4.20;;
74926;SDS011;63488;48.092;-1.640;2022-11-20T11:27:53;24.42;;;4.03;;
74926;SDS011;63488;48.092;-1.640;2022-11-20T11:30:21;19.45;;;4.07;;
74926;SDS011;63488;48.092;-1.640;2022-11-20T11:32:46;18.73;;;4.53;;
74926;SDS011;63488;48.092;-1.640;2022-11-20T11:35:20;22.35;;;3.70;;
74926;SDS011;63488;48.092;-1.640;2022-11-20T11:37:46;25.10;;;4.00;;
74926;SDS011;63488;48.092;-1.640;2022-11-20T11:40:12;21.30;;;3.70;;
74926;SDS011;63488;48.092;-1.640;2022-11-20T11:42:42;20.73;;;3.70;;
74926;SDS011;63488;48.092;-1.640;2022-11-20T11:45:11;16.90;;;3.70;;
74926;SDS011;63488;48.092;-1.640;2022-11-20T11:52:51;16.27;;;2.63;;
74926;SDS011;63488;48.092;-1.640;2022-11-20T12:00:14;17.75;;;3.50;;
74926;SDS011;63488;48.092;-1.640;2022-11-20T12:05:18;13.25;;;3.35;;
74926;SDS011;63488;48.092;-1.640;2022-11-20T12:07:49;18.70;;;3.17;;
74926;SDS011;63488;48.092;-1.640;2022-11-20T12:12:55;19.10;;;3.55;;
74926;SDS011;63488;48.092;-1.640;2022-11-20T12:15:29;14.38;;;2.67;;
74926;SDS011;63488;48.092;-1.640;2022-11-20T12:17:55;16.90;;;3.45;;
74926;SDS011;63488;48.092;-1.640;2022-11-20T12:20:22;16.75;;;3.13;;
74926;SDS011;63488;48.092;-1.640;2022-11-20T12:22:53;15.98;;;3.30;;
74926;SDS011;63488;48.092;-1.640;2022-11-20T12:30:21;15.60;;;2.75;;
74926;SDS011;63488;48.092;-1.640;2022-11-20T12:43:18;19.67;;;3.70;;
74926;SDS011;63488;48.092;-1.640;2022-11-20T12:46:08;16.73;;;3.92;;
74926;SDS011;63488;48.092;-1.640;2022-11-20T12:53:45;18.35;;;3.72;;
74926;SDS011;63488;48.092;-1.640;2022-11-20T12:59:08;18.02;;;3.30;;
74926;SDS011;63488;48.092;-1.640;2022-11-20T13:01:50;14.50;;;3.13;;
74926;SDS011;63488;48.092;-1.640;2022-11-20T13:07:05;19.27;;;3.63;;
74926;SDS011;63488;48.092;-1.640;2022-11-20T13:09:31;15.68;;;3.22;;
74926;SDS011;63488;48.092;-1.640;2022-11-20T13:14:31;17.33;;;3.53;;
74926;SDS011;63488;48.092;-1.640;2022-11-20T13:19:24;24.63;;;3.83;;
74926;SDS011;63488;48.092;-1.640;2022-11-20T13:21:49;14.93;;;3.25;;
74926;SDS011;63488;48.092;-1.640;2022-11-20T13:26:43;16.80;;;3.10;;
74926;SDS011;63488;48.092;-1.640;2022-11-20T13:29:11;14.95;;;3.08;;
74926;SDS011;63488;48.092;-1.640;2022-11-20T13:31:37;14.73;;;2.33;;
74926;SDS011;63488;48.092;-1.640;2022-11-20T13:34:05;18.10;;;2.90;;
74926;SDS011;63488;48.092;-1.640;2022-11-20T13:36:31;13.65;;;2.60;;
74926;SDS011;63488;48.092;-1.640;2022-11-20T13:38:57;14.85;;;2.92;;
74926;SDS011;63488;48.092;-1.640;2022-11-20T13:41:30;11.98;;;2.63;;
74926;SDS011;63488;48.092;-1.640;2022-11-20T13:43:59;13.25;;;2.45;;
74926;SDS011;63488;48.092;-1.640;2022-11-20T13:46:34;16.48;;;2.80;;
74926;SDS011;63488;48.092;-1.640;2022-11-20T13:49:00;10.05;;;2.63;;
74926;SDS011;63488;48.092;-1.640;2022-11-20T13:51:50;13.30;;;2.53;;
74926;SDS011;63488;48.092;-1.640;2022-11-20T13:54:28;13.68;;;2.30;;
74926;SDS011;63488;48.092;-1.640;2022-11-20T14:02:18;13.48;;;2.88;;
74926;SDS011;63488;48.092;-1.640;2022-11-20T14:04:46;18.35;;;2.40;;
74926;SDS011;63488;48.092;-1.640;2022-11-20T14:07:12;11.77;;;2.40;;
74926;SDS011;63488;48.092;-1.640;2022-11-20T14:09:37;15.07;;;2.25;;
74926;SDS011;63488;48.092;-1.640;2022-11-20T14:12:03;14.57;;;3.00;;
74926;SDS011;63488;48.092;-1.640;2022-11-20T14:14:29;14.82;;;2.92;;
74926;SDS011;63488;48.092;-1.640;2022-11-20T14:17:17;12.27;;;2.58;;
74926;SDS011;63488;48.092;-1.640;2022-11-20T14:19:42;14.68;;;3.00;;
74926;SDS011;63488;48.092;-1.640;2022-11-20T14:22:20;13.55;;;2.58;;
74926;SDS011;63488;48.092;-1.640;2022-11-20T14:24:46;17.00;;;3.22;;
74926;SDS011;63488;48.092;-1.640;2022-11-20T14:27:12;14.35;;;2.65;;
74926;SDS011;63488;48.092;-1.640;2022-11-20T14:29:38;14.05;;;2.60;;
74926;SDS011;63488;48.092;-1.640;2022-11-20T14:32:04;13.55;;;2.63;;
74926;SDS011;63488;48.092;-1.640;2022-11-20T14:34:30;13.90;;;3.10;;
74926;SDS011;63488;48.092;-1.640;2022-11-20T14:36:59;17.08;;;3.30;;
74926;SDS011;63488;48.092;-1.640;2022-11-20T14:39:28;13.85;;;2.67;;
74926;SDS011;63488;48.092;-1.640;2022-11-20T14:41:54;15.45;;;2.47;;
74926;SDS011;63488;48.092;-1.640;2022-11-20T14:44:29;11.20;;;2.80;;
74926;SDS011;63488;48.092;-1.640;2022-11-20T14:46:55;13.73;;;2.95;;
74926;SDS011;63488;48.092;-1.640;2022-11-20T14:49:21;14.25;;;2.50;;
74926;SDS011;63488;48.092;-1.640;2022-11-20T14:51:57;12.48;;;3.08;;
74926;SDS011;63488;48.092;-1.640;2022-11-20T14:54:22;15.35;;;2.65;;
74926;SDS011;63488;48.092;-1.640;2022-11-20T14:57:02;15.13;;;2.90;;
74926;SDS011;63488;48.092;-1.640;2022-11-20T15:01:57;13.00;;;2.63;;
74926;SDS011;63488;48.092;-1.640;2022-11-20T15:04:22;17.67;;;2.80;;
74926;SDS011;63488;48.092;-1.640;2022-11-20T15:06:52;13.70;;;2.53;;
74926;SDS011;63488;48.092;-1.640;2022-11-20T15:09:17;12.57;;;2.97;;
74926;SDS011;63488;48.092;-1.640;2022-11-20T15:11:52;13.80;;;2.55;;
74926;SDS011;63488;48.092;-1.640;2022-11-20T15:14:18;10.73;;;2.33;;
74926;SDS011;63488;48.092;-1.640;2022-11-20T15:16:43;9.93;;;2.33;;
74926;SDS011;63488;48.092;-1.640;2022-11-20T15:19:19;12.43;;;2.88;;
74926;SDS011;63488;48.092;-1.640;2022-11-20T15:21:45;11.93;;;2.63;;
74926;SDS011;63488;48.092;-1.640;2022-11-20T15:24:10;13.98;;;2.50;;
74926;SDS011;63488;48.092;-1.640;2022-11-20T15:26:36;14.65;;;3.10;;
74926;SDS011;63488;48.092;-1.640;2022-11-20T15:29:04;12.48;;;3.15;;
74926;SDS011;63488;48.092;-1.640;2022-11-20T15:31:29;14.20;;;4.50;;
74926;SDS011;63488;48.092;-1.640;2022-11-20T15:33:54;15.38;;;4.38;;
74926;SDS011;63488;48.092;-1.640;2022-11-20T15:36:20;15.23;;;3.75;;
74926;SDS011;63488;48.092;-1.640;2022-11-20T15:38:45;11.10;;;3.45;;
74926;SDS011;63488;48.092;-1.640;2022-11-20T15:41:11;13.70;;;3.08;;
74926;SDS011;63488;48.092;-1.640;2022-11-20T15:43:36;14.10;;;3.30;;
74926;SDS011;63488;48.092;-1.640;2022-11-20T15:46:02;12.48;;;2.85;;
74926;SDS011;63488;48.092;-1.640;2022-11-20T15:48:32;14.02;;;3.00;;
74926;SDS011;63488;48.092;-1.640;2022-11-20T15:53:25;16.52;;;3.28;;
74926;SDS011;63488;48.092;-1.640;2022-11-20T15:55:50;10.63;;;2.55;;
74926;SDS011;63488;48.092;-1.640;2022-11-20T15:58:15;13.07;;;2.85;;
74926;SDS011;63488;48.092;-1.640;2022-11-20T16:00:42;14.85;;;3.38;;
74926;SDS011;63488;48.092;-1.640;2022-11-20T16:03:11;12.55;;;3.45;;
74926;SDS011;63488;48.092;-1.640;2022-11-20T16:05:36;16.20;;;3.37;;